Time;durP1;ratioP1;P1;durP2;ratioP2;P2;SDS_P1;SDS_P2;PMS_P1;PMS_P2;Temp;Humidity;BMP_temperature;BMP_pressure;BME280_temperature;BME280_humidity;BME280_pressure;Samples;Min_cycle;Max_cycle;Signal;HPM_P1;HPM_P2
2022/05/09 00:01:41;;;;;;;16.05;9.57;;;12.30;99.90;;;;;;5005915;28;20061;-79
2022/05/09 00:04:07;;;;;;;9.55;8.43;;;12.30;99.90;;;;;;4991190;28;20053;-80
2022/05/09 00:06:34;;;;;;;12.00;8.68;;;12.20;99.90;;;;;;4989190;28;20038;-80
2022/05/09 00:09:00;;;;;;;9.77;8.88;;;12.20;99.90;;;;;;4984092;28;20051;-78
2022/05/09 00:11:26;;;;;;;12.90;9.30;;;12.10;99.90;;;;;;4992108;28;20468;-79
2022/05/09 00:13:53;;;;;;;10.23;9.18;;;12.00;99.90;;;;;;4989560;28;20069;-80
2022/05/09 00:16:20;;;;;;;9.15;8.23;;;11.90;99.90;;;;;;4985969;28;20049;-80
2022/05/09 00:18:47;;;;;;;9.05;8.15;;;11.80;99.90;;;;;;4990719;28;20154;-80
2022/05/09 00:21:14;;;;;;;9.77;8.77;;;11.80;99.90;;;;;;5004848;28;20065;-80
2022/05/09 00:23:40;;;;;;;13.90;9.35;;;11.70;99.90;;;;;;4987389;28;20039;-80
2022/05/09 00:26:07;;;;;;;9.82;8.88;;;11.60;99.90;;;;;;4989737;28;20483;-80
2022/05/09 00:28:35;;;;;;;10.57;9.68;;;11.60;99.90;;;;;;4989927;28;20045;-81
2022/05/09 00:31:05;;;;;;;10.93;9.07;;;11.60;99.90;;;;;;5043442;28;20044;-79
2022/05/09 00:33:31;;;;;;;11.23;10.13;;;11.50;99.90;;;;;;5036705;28;20037;-80
2022/05/09 00:35:57;;;;;;;11.15;9.68;;;11.50;99.90;;;;;;5055103;28;20037;-79
2022/05/09 00:38:25;;;;;;;11.27;10.13;;;11.40;99.90;;;;;;5060299;28;20056;-79
2022/05/09 00:43:39;;;;;;;13.38;10.77;;;11.20;99.90;;;;;;5071854;28;20051;-79
2022/05/09 00:46:06;;;;;;;10.48;9.65;;;11.20;99.90;;;;;;5072649;28;20035;-79
2022/05/09 00:48:32;;;;;;;14.95;10.55;;;11.20;99.90;;;;;;5071535;28;20049;-79
2022/05/09 00:51:00;;;;;;;13.13;10.75;;;11.10;99.90;;;;;;5073691;28;20384;-79
2022/05/09 00:53:29;;;;;;;11.07;10.07;;;11.10;99.90;;;;;;5073646;28;20476;-79
2022/05/09 00:56:01;;;;;;;11.55;10.45;;;11.10;99.90;;;;;;5071934;28;20043;-79
2022/05/09 00:58:46;;;;;;;13.43;10.63;;;11.10;99.90;;;;;;5070596;28;20028;-79
2022/05/09 01:01:14;;;;;;;13.23;11.77;;;11.10;99.90;;;;;;5061867;28;20048;-79
2022/05/09 01:03:42;;;;;;;13.73;12.25;;;11.10;99.90;;;;;;5071534;28;20063;-79
2022/05/09 01:06:10;;;;;;;12.65;11.43;;;11.00;99.90;;;;;;5067611;28;20040;-79
2022/05/09 01:08:36;;;;;;;13.43;12.05;;;11.00;99.90;;;;;;5070136;28;20090;-79
2022/05/09 01:11:16;;;;;;;14.32;12.82;;;10.90;99.90;;;;;;5073246;28;20036;-79
2022/05/09 01:13:46;;;;;;;15.90;12.95;;;11.00;99.90;;;;;;5073059;28;20864;-79
2022/05/09 01:16:16;;;;;;;13.48;12.18;;;11.00;99.90;;;;;;5073227;28;20041;-79
2022/05/09 01:18:44;;;;;;;13.57;12.10;;;11.00;99.90;;;;;;5074312;28;20052;-79
2022/05/09 01:21:31;;;;;;;14.07;12.73;;;11.10;99.90;;;;;;5049631;28;20028;-79
2022/05/09 01:23:58;;;;;;;14.07;12.75;;;11.20;99.90;;;;;;5069540;28;20040;-79
2022/05/09 01:26:25;;;;;;;12.90;11.60;;;11.20;99.90;;;;;;5073357;28;20029;-79
2022/05/09 01:28:51;;;;;;;14.00;12.02;;;11.10;99.90;;;;;;5068107;28;20389;-80
2022/05/09 01:31:18;;;;;;;12.18;11.07;;;11.10;99.90;;;;;;5073287;28;20481;-80
2022/05/09 01:33:50;;;;;;;13.38;11.82;;;11.10;99.90;;;;;;5055414;28;20044;-80
2022/05/09 01:36:20;;;;;;;12.18;11.07;;;11.00;99.90;;;;;;5071515;28;20028;-79
2022/05/09 01:39:06;;;;;;;13.10;12.00;;;11.00;99.90;;;;;;5074073;28;20478;-79
2022/05/09 01:41:39;;;;;;;14.57;11.85;;;10.90;99.90;;;;;;5073789;28;20047;-79
2022/05/09 01:44:07;;;;;;;12.45;11.25;;;10.90;99.90;;;;;;5071260;28;20036;-78
2022/05/09 01:46:34;;;;;;;13.15;11.90;;;10.90;99.90;;;;;;5073753;28;20028;-79
2022/05/09 01:51:47;;;;;;;13.35;12.15;;;10.90;99.90;;;;;;5073829;28;20037;-80
2022/05/09 01:54:14;;;;;;;19.23;11.07;;;10.90;99.90;;;;;;5057171;28;20032;-80
2022/05/09 01:56:41;;;;;;;13.85;12.45;;;10.80;99.90;;;;;;5068924;28;20096;-79
2022/05/09 01:59:10;;;;;;;12.45;11.18;;;10.80;99.90;;;;;;5066447;28;20461;-78
2022/05/09 02:01:41;;;;;;;14.45;12.25;;;10.80;99.90;;;;;;5071991;28;20036;-80
2022/05/09 02:04:08;;;;;;;12.48;11.30;;;10.80;99.90;;;;;;5067150;28;20036;-80
2022/05/09 02:06:34;;;;;;;18.23;12.65;;;10.80;99.90;;;;;;5073731;28;20404;-79
2022/05/09 02:09:01;;;;;;;12.50;11.25;;;10.70;99.90;;;;;;5072524;28;20036;-80
2022/05/09 02:11:27;;;;;;;12.98;11.70;;;10.70;99.90;;;;;;5073470;28;20488;-79
2022/05/09 02:13:53;;;;;;;13.13;12.02;;;10.70;99.90;;;;;;5072158;28;20036;-80
2022/05/09 02:16:19;;;;;;;13.35;11.98;;;10.60;99.90;;;;;;5054626;28;20124;-80
2022/05/09 02:18:45;;;;;;;15.07;13.38;;;10.60;99.90;;;;;;5072381;28;20028;-79
2022/05/09 02:21:12;;;;;;;15.40;12.10;;;10.70;99.90;;;;;;5069439;28;20473;-79
2022/05/09 02:23:38;;;;;;;13.57;12.15;;;10.70;99.90;;;;;;5068147;28;20055;-79
2022/05/09 02:26:04;;;;;;;16.00;12.88;;;10.60;99.90;;;;;;5072737;28;20025;-80
2022/05/09 02:28:31;;;;;;;16.17;13.20;;;10.60;99.90;;;;;;5072816;28;20099;-79
2022/05/09 02:30:57;;;;;;;14.55;13.02;;;10.60;99.90;;;;;;5068364;28;20035;-79
2022/05/09 02:33:23;;;;;;;14.55;13.20;;;10.70;99.90;;;;;;5065485;28;20047;-79
2022/05/09 02:35:50;;;;;;;15.65;12.65;;;10.70;99.90;;;;;;5068345;28;20029;-79
2022/05/09 02:38:16;;;;;;;13.73;12.38;;;10.80;99.90;;;;;;5074239;28;20048;-79
2022/05/09 02:40:45;;;;;;;14.25;12.80;;;10.80;99.90;;;;;;5071940;28;20036;-79
2022/05/09 02:43:12;;;;;;;17.08;13.20;;;10.80;99.90;;;;;;5071934;28;20465;-80
2022/05/09 02:45:41;;;;;;;13.70;12.40;;;10.80;99.90;;;;;;5052925;28;20043;-78
2022/05/09 02:48:09;;;;;;;13.93;12.05;;;10.90;99.90;;;;;;5068749;28;20036;-79
2022/05/09 02:50:35;;;;;;;13.18;11.40;;;10.80;99.90;;;;;;5073459;28;20461;-79
2022/05/09 02:53:02;;;;;;;15.57;11.63;;;10.80;99.90;;;;;;5065227;28;20413;-79
2022/05/09 02:55:31;;;;;;;12.75;11.55;;;10.80;99.90;;;;;;5073161;28;20028;-79
2022/05/09 02:57:58;;;;;;;13.43;10.38;;;10.90;99.90;;;;;;5074497;28;20032;-79
2022/05/09 03:00:27;;;;;;;12.38;11.30;;;10.90;99.90;;;;;;5050528;28;20051;-79
2022/05/09 03:05:40;;;;;;;12.40;10.93;;;10.90;99.90;;;;;;5072300;28;20044;-79
2022/05/09 03:08:09;;;;;;;11.55;10.38;;;10.90;99.90;;;;;;5071627;28;20036;-81
2022/05/09 03:10:37;;;;;;;10.38;9.38;;;11.00;99.90;;;;;;5051722;28;20032;-79
2022/05/09 03:13:05;;;;;;;12.88;10.80;;;11.00;99.90;;;;;;5051364;28;20053;-80
2022/05/09 03:15:36;;;;;;;11.23;10.13;;;10.90;99.90;;;;;;5072218;28;20033;-80
2022/05/09 03:18:03;;;;;;;;;;;10.90;99.90;;;;;;5072502;28;20036;-80
2022/05/09 03:20:29;;;;;;;11.02;10.02;;;10.90;99.90;;;;;;5067996;28;19913;-80
2022/05/09 03:22:55;;;;;;;10.68;9.63;;;10.90;99.90;;;;;;5070933;28;20055;-80
2022/05/09 03:25:21;;;;;;;12.27;10.18;;;10.80;99.90;;;;;;5066118;28;20568;-80
2022/05/09 03:27:47;;;;;;;12.70;11.30;;;10.80;99.90;;;;;;5066583;28;20035;-80
2022/05/09 03:30:15;;;;;;;11.48;10.35;;;10.70;99.90;;;;;;5036471;28;20055;-79
2022/05/09 03:32:41;;;;;;;11.52;10.32;;;10.70;99.90;;;;;;5041653;28;20480;-80
2022/05/09 03:35:09;;;;;;;14.60;10.95;;;10.60;99.90;;;;;;5063708;28;20033;-80
2022/05/09 03:37:35;;;;;;;12.65;11.02;;;10.60;99.90;;;;;;5071680;28;20044;-79
2022/05/09 03:40:03;;;;;;;10.77;9.63;;;10.50;99.90;;;;;;5074882;28;20037;-79
2022/05/09 03:42:29;;;;;;;17.60;10.93;;;10.50;99.90;;;;;;5071949;28;20036;-80
2022/05/09 03:44:56;;;;;;;12.10;10.85;;;10.50;99.90;;;;;;5069332;28;20043;-79
2022/05/09 03:47:22;;;;;;;12.05;10.70;;;10.40;99.90;;;;;;5052284;28;20603;-79
2022/05/09 03:49:48;;;;;;;12.77;11.48;;;10.40;99.90;;;;;;5049610;28;20025;-79
2022/05/09 03:52:15;;;;;;;11.73;10.52;;;10.30;99.90;;;;;;5070318;28;20036;-80
2022/05/09 03:54:41;;;;;;;13.35;12.00;;;10.30;99.90;;;;;;5066288;28;20029;-79
2022/05/09 03:57:09;;;;;;;11.77;10.77;;;10.30;99.90;;;;;;5070273;28;20048;-79
2022/05/09 03:59:36;;;;;;;13.48;11.73;;;10.30;99.90;;;;;;5067733;28;20051;-80
2022/05/09 04:02:03;;;;;;;14.98;12.15;;;10.30;99.90;;;;;;5070204;28;20032;-79
2022/05/09 04:04:29;;;;;;;12.68;11.02;;;10.30;99.90;;;;;;5069296;28;20040;-79
2022/05/09 04:06:55;;;;;;;12.07;10.88;;;10.30;99.90;;;;;;5067985;28;20037;-80
2022/05/09 04:09:21;;;;;;;13.45;12.05;;;10.30;99.90;;;;;;5065965;28;20028;-80
2022/05/09 04:11:48;;;;;;;12.30;10.75;;;10.30;99.90;;;;;;5071410;28;20051;-78
2022/05/09 04:14:15;;;;;;;12.57;11.52;;;10.30;99.90;;;;;;5063114;28;20048;-78
2022/05/09 04:16:51;;;;;;;13.02;11.60;;;10.30;99.90;;;;;;5071264;28;20380;-78
2022/05/09 04:19:20;;;;;;;11.82;10.45;;;10.30;99.90;;;;;;5066635;28;20043;-78
2022/05/09 04:21:47;;;;;;;12.68;11.48;;;10.30;99.90;;;;;;5046694;28;20140;-79
2022/05/09 04:24:14;;;;;;;12.88;11.57;;;10.40;99.90;;;;;;5069036;28;20056;-80
2022/05/09 04:26:40;;;;;;;12.77;11.68;;;10.40;99.90;;;;;;5070231;28;20389;-79
2022/05/09 04:29:07;;;;;;;11.90;10.65;;;10.40;99.90;;;;;;5067908;28;20036;-78
2022/05/09 04:31:33;;;;;;;11.77;10.77;;;10.50;99.90;;;;;;5046554;28;20496;-79
2022/05/09 04:34:00;;;;;;;13.02;11.80;;;10.50;99.90;;;;;;5063789;28;20028;-80
2022/05/09 04:36:28;;;;;;;14.00;11.35;;;10.60;99.90;;;;;;5067798;28;20033;-78
2022/05/09 04:38:54;;;;;;;13.55;10.60;;;10.60;99.90;;;;;;5038302;28;20415;-78
2022/05/09 04:41:22;;;;;;;9.18;8.30;;;10.80;99.90;;;;;;5050367;28;20246;-78
2022/05/09 04:43:49;;;;;;;12.35;8.82;;;11.30;99.90;;;;;;5050063;28;20063;-78
2022/05/09 04:46:16;;;;;;;11.57;7.53;;;11.90;99.90;;;;;;5048025;28;20043;-78
2022/05/09 04:48:44;;;;;;;8.68;7.80;;;12.50;99.90;;;;;;5049307;28;20029;-77
2022/05/09 04:51:10;;;;;;;7.22;6.63;;;12.70;99.90;;;;;;5050447;28;20473;-78
2022/05/09 04:53:38;;;;;;;6.38;5.68;;;13.10;99.90;;;;;;5049588;28;20033;-78
2022/05/09 04:56:05;;;;;;;6.78;6.15;;;13.60;99.90;;;;;;5046175;28;20049;-79
2022/05/09 04:58:32;;;;;;;6.15;5.55;;;13.80;99.90;;;;;;5048632;28;20029;-78
2022/05/09 05:00:58;;;;;;;5.55;4.25;;;14.30;99.90;;;;;;5039849;28;20485;-79
2022/05/09 05:03:28;;;;;;;7.37;4.63;;;14.60;99.90;;;;;;5046769;28;20033;-78
2022/05/09 05:05:54;;;;;;;12.40;5.00;;;14.70;99.90;;;;;;5050639;28;20482;-77
2022/05/09 05:08:21;;;;;;;6.72;5.22;;;15.00;99.90;;;;;;5050049;28;20419;-78
2022/05/09 05:10:53;;;;;;;6.10;4.78;;;14.80;99.90;;;;;;5050096;28;20387;-78
2022/05/09 05:13:20;;;;;;;6.63;4.63;;;14.90;99.90;;;;;;5044841;28;20029;-78
2022/05/09 05:15:48;;;;;;;5.68;3.92;;;14.90;99.90;;;;;;5052919;28;20287;-77
2022/05/09 05:18:19;;;;;;;4.85;4.25;;;15.30;99.90;;;;;;5053716;28;20033;-78
2022/05/09 05:20:45;;;;;;;4.18;3.70;;;15.30;99.90;;;;;;5048663;28;20029;-77
2022/05/09 05:23:11;;;;;;;5.60;4.63;;;15.40;99.90;;;;;;5054261;28;20033;-77
2022/05/09 05:25:40;;;;;;;5.15;4.60;;;15.70;99.90;;;;;;5056411;28;20040;-77
2022/05/09 05:28:08;;;;;;;5.70;4.63;;;16.10;99.90;;;;;;5054346;28;20029;-79
2022/05/09 05:30:35;;;;;;;7.20;5.25;;;16.60;99.90;;;;;;5054955;28;20076;-78
2022/05/09 05:33:03;;;;;;;4.43;3.72;;;16.50;99.90;;;;;;5053033;28;20509;-79
2022/05/09 05:35:30;;;;;;;4.78;4.15;;;16.60;99.90;;;;;;5050794;28;20025;-77
2022/05/09 05:37:56;;;;;;;6.47;4.68;;;16.70;99.90;;;;;;5060036;28;20083;-78
2022/05/09 05:40:23;;;;;;;4.28;3.88;;;16.70;99.90;;;;;;5073295;28;20048;-78
2022/05/09 05:42:49;;;;;;;6.57;4.47;;;17.30;98.60;;;;;;5065452;28;20044;-78
2022/05/09 05:45:18;;;;;;;4.55;4.15;;;17.40;98.40;;;;;;5054638;28;21001;-79
2022/05/09 05:47:46;;;;;;;4.55;4.13;;;18.40;96.00;;;;;;5055991;28;20362;-79
2022/05/09 05:50:13;;;;;;;8.88;4.80;;;18.80;95.10;;;;;;5072078;28;20033;-78
2022/05/09 05:52:40;;;;;;;8.82;4.55;;;19.40;92.00;;;;;;5073289;28;20040;-79
2022/05/09 05:55:07;;;;;;;4.05;3.65;;;19.40;91.30;;;;;;5070305;28;20016;-79
2022/05/09 05:57:37;;;;;;;6.18;4.28;;;18.80;92.60;;;;;;5067207;28;20051;-78
2022/05/09 06:00:15;;;;;;;7.40;4.00;;;19.20;92.30;;;;;;5072108;28;20033;-81
2022/05/09 06:02:44;;;;;;;5.72;3.85;;;19.10;92.00;;;;;;5069220;28;20071;-79
2022/05/09 06:05:12;;;;;;;4.30;3.90;;;19.00;92.30;;;;;;5073342;28;20480;-78
2022/05/09 06:07:39;;;;;;;7.88;4.25;;;18.70;93.00;;;;;;5054777;28;20107;-78
2022/05/09 06:10:06;;;;;;;4.95;3.92;;;18.40;93.60;;;;;;5072679;28;20043;-79
2022/05/09 06:12:32;;;;;;;9.32;3.90;;;18.60;93.40;;;;;;5072204;28;20063;-78
2022/05/09 06:17:45;;;;;;;5.15;4.03;;;18.70;93.20;;;;;;5073373;28;20029;-78
2022/05/09 06:20:12;;;;;;;6.43;4.45;;;18.60;92.80;;;;;;5071922;28;20028;-78
2022/05/09 06:22:39;;;;;;;4.70;3.83;;;19.10;91.70;;;;;;5072259;28;20032;-78
2022/05/09 06:25:10;;;;;;;7.55;4.38;;;18.70;93.50;;;;;;5054280;28;20025;-80
2022/05/09 06:27:37;;;;;;;3.88;3.20;;;19.00;93.00;;;;;;5068023;28;20025;-80
2022/05/09 06:30:06;;;;;;;4.93;3.80;;;19.20;92.10;;;;;;5066387;28;20440;-79
2022/05/09 06:32:33;;;;;;;5.28;3.70;;;19.00;92.00;;;;;;5072617;28;20047;-79
2022/05/09 06:35:08;;;;;;;3.50;3.20;;;18.90;92.80;;;;;;5053805;28;20466;-79
2022/05/09 06:37:35;;;;;;;5.70;3.75;;;19.40;92.10;;;;;;5068947;28;20044;-79
2022/05/09 06:40:04;;;;;;;6.13;4.25;;;19.30;92.20;;;;;;5069542;28;20029;-79
2022/05/09 06:42:30;;;;;;;7.28;3.70;;;19.60;91.40;;;;;;5072486;28;20051;-79
2022/05/09 06:44:56;;;;;;;4.00;3.20;;;19.50;91.30;;;;;;5071499;28;20036;-79
2022/05/09 06:47:22;;;;;;;5.88;3.92;;;19.70;91.40;;;;;;5072416;28;20055;-79
2022/05/09 06:49:49;;;;;;;4.47;3.25;;;20.10;90.40;;;;;;5067947;28;20029;-79
2022/05/09 06:52:15;;;;;;;3.90;3.58;;;19.90;90.10;;;;;;5054306;28;20028;-79
2022/05/09 06:54:41;;;;;;;4.88;3.65;;;19.20;90.90;;;;;;5071567;28;20035;-80
2022/05/09 06:57:07;;;;;;;4.05;3.45;;;19.30;92.60;;;;;;5072089;28;20441;-80
2022/05/09 06:59:34;;;;;;;7.22;4.20;;;19.90;90.50;;;;;;5072239;28;20047;-79
2022/05/09 07:02:01;;;;;;;7.82;3.92;;;19.20;91.20;;;;;;5071735;28;20033;-80
2022/05/09 07:04:27;;;;;;;4.97;3.10;;;18.70;93.10;;;;;;5069580;28;20441;-80
2022/05/09 07:06:53;;;;;;;3.55;3.20;;;19.30;91.70;;;;;;5072705;28;20051;-79
2022/05/09 07:09:20;;;;;;;8.70;4.40;;;19.90;90.60;;;;;;5069025;28;20056;-80
2022/05/09 07:11:46;;;;;;;3.13;2.83;;;20.00;90.40;;;;;;5072406;28;20393;-79
2022/05/09 07:14:12;;;;;;;4.20;3.63;;;19.30;90.00;;;;;;5066957;28;20068;-79
2022/05/09 07:16:38;;;;;;;3.25;2.88;;;19.00;91.70;;;;;;5053634;28;20035;-80
2022/05/09 07:19:04;;;;;;;4.55;3.45;;;19.90;90.60;;;;;;5033174;28;20044;-80
2022/05/09 07:21:32;;;;;;;4.57;3.45;;;20.80;86.00;;;;;;5071475;28;20045;-80
2022/05/09 07:23:59;;;;;;;3.97;3.13;;;20.80;84.80;;;;;;5071424;28;20035;-80
2022/05/09 07:26:26;;;;;;;5.10;3.67;;;22.40;79.40;;;;;;5071866;28;20152;-80
2022/05/09 07:28:52;;;;;;;3.35;3.00;;;22.90;77.50;;;;;;5070260;28;20035;-81
2022/05/09 07:31:18;;;;;;;5.15;3.13;;;23.90;74.20;;;;;;5072001;28;20458;-79
2022/05/09 07:33:44;;;;;;;5.10;3.03;;;23.60;69.60;;;;;;5047835;28;20048;-81
2022/05/09 07:36:11;;;;;;;8.02;3.00;;;22.80;71.50;;;;;;5071882;28;20039;-81
2022/05/09 07:38:37;;;;;;;2.80;2.60;;;21.90;75.00;;;;;;5041286;28;20045;-81
2022/05/09 07:41:03;;;;;;;3.58;3.00;;;21.80;77.10;;;;;;5048355;28;20034;-81
2022/05/09 07:43:30;;;;;;;3.47;2.78;;;22.20;72.60;;;;;;5050283;28;20438;-83
2022/05/09 07:45:57;;;;;;;3.42;3.10;;;22.20;70.40;;;;;;5052205;28;20134;-81
2022/05/09 07:48:26;;;;;;;5.53;2.88;;;22.90;67.30;;;;;;5051540;28;20037;-82
2022/05/09 07:50:55;;;;;;;4.25;2.88;;;23.30;69.30;;;;;;5032315;28;20402;-82
2022/05/09 07:53:24;;;;;;;3.85;2.75;;;23.90;65.50;;;;;;5048591;28;20401;-81
2022/05/09 07:55:51;;;;;;;5.75;2.63;;;23.30;65.50;;;;;;5052204;28;20037;-82
2022/05/09 07:58:18;;;;;;;4.90;2.90;;;23.30;66.00;;;;;;5036186;28;20033;-81
2022/05/09 08:00:45;;;;;;;3.33;2.72;;;22.60;66.40;;;;;;5051575;28;20025;-80
2022/05/09 08:03:21;;;;;;;3.92;2.63;;;23.30;66.00;;;;;;5050383;28;20037;-80
2022/05/09 08:05:49;;;;;;;3.20;2.75;;;23.20;66.50;;;;;;5050667;28;20053;-81
2022/05/09 08:08:16;;;;;;;3.38;2.88;;;24.10;62.40;;;;;;5041351;28;20034;-78
2022/05/09 08:10:43;;;;;;;3.03;2.63;;;23.70;63.70;;;;;;5030483;28;20033;-77
2022/05/09 08:13:14;;;;;;;3.55;2.85;;;23.50;62.70;;;;;;5049902;28;20401;-77
2022/05/09 08:15:40;;;;;;;3.15;2.85;;;23.90;62.60;;;;;;5050585;28;20401;-78
2022/05/09 08:18:07;;;;;;;3.72;3.03;;;23.50;61.70;;;;;;5039393;28;20379;-84
2022/05/09 08:20:35;;;;;;;3.28;2.63;;;24.30;63.10;;;;;;5033163;28;20036;-77
2022/05/09 08:23:06;;;;;;;4.95;3.08;;;25.10;60.00;;;;;;5049378;28;20056;-77
2022/05/09 08:25:36;;;;;;;6.22;3.20;;;24.60;60.70;;;;;;5041126;28;20052;-76
2022/05/09 08:28:03;;;;;;;2.35;2.15;;;23.50;62.30;;;;;;5041590;28;20040;-76
2022/05/09 08:30:33;;;;;;;3.03;2.53;;;23.50;64.10;;;;;;5048855;28;20026;-77
2022/05/09 08:33:00;;;;;;;3.97;2.78;;;23.10;64.10;;;;;;5044368;28;20029;-76
2022/05/09 08:35:27;;;;;;;2.25;2.05;;;22.50;65.30;;;;;;5049796;28;20032;-76
2022/05/09 08:37:55;;;;;;;4.03;3.03;;;22.80;65.50;;;;;;5055034;28;20037;-77
2022/05/09 08:40:47;;;;;;;4.05;2.40;;;24.10;64.20;;;;;;5070272;28;20045;-76
2022/05/09 08:43:39;;;;;;;10.70;3.13;;;25.60;60.50;;;;;;5067286;28;20055;-77
2022/05/09 08:46:36;;;;;;;5.20;2.60;;;26.20;57.80;;;;;;5069980;28;20040;-76
2022/05/09 08:49:31;;;;;;;4.47;3.20;;;24.60;61.40;;;;;;5018281;28;20062;-76
2022/05/09 08:52:02;;;;;;;3.78;2.72;;;25.80;60.10;;;;;;5075283;28;20385;-77
2022/05/09 08:54:29;;;;;;;3.92;2.70;;;25.40;59.30;;;;;;5074193;28;20453;-77
2022/05/09 08:57:07;;;;;;;5.65;3.08;;;24.30;63.60;;;;;;5074815;28;20044;-77
2022/05/09 08:59:43;;;;;;;5.22;2.80;;;23.70;61.80;;;;;;5074705;28;20032;-76
2022/05/09 09:02:14;;;;;;;5.07;2.47;;;22.80;63.40;;;;;;5057749;28;20037;-77
2022/05/09 09:04:49;;;;;;;3.35;2.72;;;23.50;62.70;;;;;;5071966;28;20039;-76
2022/05/09 09:07:32;;;;;;;4.60;2.22;;;23.10;61.80;;;;;;5068994;28;20049;-76
2022/05/09 09:10:31;;;;;;;3.45;2.42;;;24.10;61.60;;;;;;5074974;28;20047;-80
2022/05/09 09:13:23;;;;;;;3.50;2.65;;;24.10;60.10;;;;;;5067166;28;20044;-76
2022/05/09 09:15:51;;;;;;;5.93;2.90;;;24.60;59.90;;;;;;5069681;28;20027;-75
2022/05/09 09:18:32;;;;;;;4.57;3.08;;;23.70;60.90;;;;;;5073943;28;20047;-75
2022/05/09 09:20:59;;;;;;;4.57;2.90;;;23.90;61.90;;;;;;5071534;28;20482;-77
2022/05/09 09:23:54;;;;;;;4.85;2.67;;;24.30;63.20;;;;;;5047607;28;20044;-74
2022/05/09 09:26:24;;;;;;;2.78;2.28;;;25.10;59.80;;;;;;5066910;28;20033;-75
2022/05/09 09:29:09;;;;;;;4.22;2.95;;;25.10;61.90;;;;;;5070730;28;20020;-75
2022/05/09 09:31:38;;;;;;;4.38;2.72;;;25.40;59.50;;;;;;5072628;28;20037;-76
2022/05/09 09:34:16;;;;;;;2.88;2.58;;;24.90;58.40;;;;;;5069061;28;20040;-75
2022/05/09 09:36:50;;;;;;;5.25;3.20;;;23.90;60.50;;;;;;5070684;28;20040;-74
2022/05/09 09:39:19;;;;;;;6.68;2.90;;;23.20;61.80;;;;;;5049739;28;20410;-74
2022/05/09 09:41:47;;;;;;;6.20;2.97;;;23.40;62.20;;;;;;5050421;28;20040;-75
2022/05/09 09:44:15;;;;;;;6.20;3.08;;;24.70;59.90;;;;;;5046311;28;20508;-74
2022/05/09 09:47:00;;;;;;;7.28;3.22;;;25.30;59.10;;;;;;5051158;28;20033;-75
2022/05/09 09:49:26;;;;;;;3.60;2.80;;;25.60;58.90;;;;;;5047241;28;20381;-74
2022/05/09 09:51:53;;;;;;;3.33;2.67;;;25.60;58.90;;;;;;5050950;28;20025;-73
2022/05/09 09:54:30;;;;;;;7.53;2.90;;;24.20;60.10;;;;;;5051704;28;20036;-75
2022/05/09 09:57:19;;;;;;;5.63;3.53;;;23.40;62.30;;;;;;5042125;28;20047;-74
2022/05/09 09:59:45;;;;;;;7.18;3.22;;;23.30;61.50;;;;;;5050337;28;20032;-74
2022/05/09 10:02:21;;;;;;;3.50;3.05;;;23.10;62.40;;;;;;5048576;28;20443;-74
2022/05/09 10:04:48;;;;;;;3.22;2.63;;;23.30;61.20;;;;;;5053054;28;20040;-73
2022/05/09 10:07:32;;;;;;;4.82;3.22;;;23.00;61.60;;;;;;5052963;28;20044;-73
2022/05/09 10:10:23;;;;;;;5.68;3.55;;;22.70;61.90;;;;;;5042352;28;20041;-74
2022/05/09 10:12:52;;;;;;;4.05;2.83;;;23.00;63.40;;;;;;5048678;28;20037;-73
2022/05/09 10:15:24;;;;;;;7.85;3.58;;;23.20;63.00;;;;;;5049674;28;20041;-73
2022/05/09 10:17:50;;;;;;;3.08;2.78;;;22.90;62.10;;;;;;5050696;28;20033;-73
2022/05/09 10:20:27;;;;;;;5.40;2.95;;;22.30;63.50;;;;;;5049601;28;20036;-75
2022/05/09 10:26:19;;;;;;;3.28;2.97;;;22.90;63.30;;;;;;5053069;28;20500;-74
2022/05/09 10:28:48;;;;;;;5.03;3.72;;;22.80;62.00;;;;;;5052528;28;20036;-74
2022/05/09 10:31:30;;;;;;;3.80;2.55;;;22.90;64.70;;;;;;5033758;28;20402;-74
2022/05/09 10:34:05;;;;;;;3.42;3.13;;;23.30;62.30;;;;;;5051675;28;20048;-74
2022/05/09 10:36:52;;;;;;;5.35;2.80;;;23.10;62.40;;;;;;5050960;28;20029;-73
2022/05/09 10:39:26;;;;;;;3.35;2.90;;;22.80;62.30;;;;;;5067076;28;20052;-73
2022/05/09 10:41:57;;;;;;;3.70;3.25;;;22.70;62.70;;;;;;5063405;28;20408;-75
2022/05/09 10:44:29;;;;;;;3.42;3.00;;;22.80;63.60;;;;;;5071038;28;20043;-73
2022/05/09 10:47:09;;;;;;;7.60;3.30;;;23.10;63.50;;;;;;5070972;28;20071;-73
2022/05/09 10:49:59;;;;;;;;;;;22.90;62.90;;;;;;5065054;28;20032;-80
2022/05/09 10:52:45;;;;;;;3.63;2.92;;;22.30;62.70;;;;;;5067866;28;19919;-73
2022/05/09 10:55:23;;;;;;;3.95;3.05;;;22.10;63.10;;;;;;5068868;28;20039;-76
2022/05/09 10:58:12;;;;;;;5.93;3.33;;;22.20;64.90;;;;;;5064580;28;20037;-73
2022/05/09 11:00:44;;;;;;;6.47;3.22;;;22.80;63.10;;;;;;5065175;28;20033;-72
2022/05/09 11:03:41;;;;;;;3.65;2.97;;;23.20;61.00;;;;;;5051284;28;20037;-73
2022/05/09 11:06:35;;;;;;;3.85;2.80;;;22.90;62.50;;;;;;5050571;28;20056;-74
2022/05/09 11:09:09;;;;;;;5.25;3.10;;;23.10;62.00;;;;;;5069788;28;20107;-73
2022/05/09 11:11:50;;;;;;;4.57;2.97;;;22.90;61.40;;;;;;5070814;28;20060;-74
2022/05/09 11:14:22;;;;;;;2.65;2.42;;;23.40;62.50;;;;;;5067340;28;20036;-72
2022/05/09 11:17:10;;;;;;;3.72;2.42;;;23.80;60.10;;;;;;5071622;28;20523;-72
2022/05/09 11:19:42;;;;;;;6.45;2.47;;;23.80;60.40;;;;;;5035585;28;20040;-74
2022/05/09 11:22:54;;;;;;;5.57;3.10;;;23.90;59.60;;;;;;5063054;28;20024;-76
2022/05/09 11:25:32;;;;;;;5.63;3.25;;;23.70;58.60;;;;;;5005412;28;20053;-73
2022/05/09 11:28:14;;;;;;;3.58;3.10;;;23.20;60.80;;;;;;5004305;28;20042;-76
2022/05/09 11:30:44;;;;;;;3.88;2.75;;;23.30;60.00;;;;;;5046760;28;20048;-77
2022/05/09 11:33:13;;;;;;;3.40;2.67;;;23.70;59.40;;;;;;5069162;28;20037;-76
2022/05/09 11:35:40;;;;;;;3.65;2.42;;;23.60;60.00;;;;;;5071211;28;20032;-74
2022/05/09 11:38:14;;;;;;;4.25;2.83;;;23.50;59.50;;;;;;5068110;28;20068;-77
2022/05/09 11:41:03;;;;;;;3.65;3.28;;;23.40;60.10;;;;;;5071857;28;20029;-75
2022/05/09 11:43:47;;;;;;;3.45;2.42;;;23.60;59.60;;;;;;5070285;28;20247;-74
2022/05/09 11:46:24;;;;;;;5.10;2.67;;;24.00;60.00;;;;;;5049758;28;20048;-75
2022/05/09 11:48:56;;;;;;;7.70;3.53;;;24.20;57.90;;;;;;5071483;28;20032;-74
2022/05/09 11:51:29;;;;;;;4.25;2.80;;;23.70;59.00;;;;;;5070709;28;20029;-74
2022/05/09 11:54:06;;;;;;;3.55;2.25;;;23.50;59.60;;;;;;5070361;28;20040;-72
2022/05/09 11:56:33;;;;;;;3.65;3.17;;;23.40;59.60;;;;;;5053171;28;20040;-74
2022/05/09 11:59:01;;;;;;;4.15;3.00;;;23.40;60.00;;;;;;5066322;28;20043;-72
2022/05/09 12:01:53;;;;;;;2.65;2.20;;;23.90;58.50;;;;;;5069927;28;20029;-75
2022/05/09 12:04:39;;;;;;;4.45;2.95;;;24.20;58.60;;;;;;5063855;28;20692;-71
2022/05/09 12:07:28;;;;;;;3.00;2.40;;;24.30;60.10;;;;;;5065509;28;20032;-70
2022/05/09 12:10:01;;;;;;;8.88;2.90;;;24.70;57.90;;;;;;5059354;28;20051;-72
2022/05/09 12:12:43;;;;;;;7.35;3.67;;;24.80;58.00;;;;;;5069837;28;20029;-72
2022/05/09 12:15:15;;;;;;;5.85;3.13;;;24.50;58.10;;;;;;5069574;28;20043;-72
2022/05/09 12:17:51;;;;;;;4.18;2.67;;;24.30;59.40;;;;;;5069126;28;20028;-72
2022/05/09 12:20:26;;;;;;;10.95;3.55;;;24.70;58.80;;;;;;5070810;28;20044;-72
2022/05/09 12:22:53;;;;;;;4.65;2.60;;;25.20;56.50;;;;;;5064450;28;20024;-72
2022/05/09 12:25:39;;;;;;;3.13;2.40;;;25.60;56.40;;;;;;5065169;28;20028;-72
2022/05/09 12:28:18;;;;;;;2.85;1.65;;;25.80;56.00;;;;;;5074047;28;20048;-72
2022/05/09 12:30:44;;;;;;;3.20;2.58;;;26.20;55.40;;;;;;5074632;28;20024;-72
2022/05/09 12:33:29;;;;;;;4.53;2.90;;;25.50;54.30;;;;;;5069845;28;20044;-77
2022/05/09 12:36:19;;;;;;;4.45;2.63;;;25.50;55.50;;;;;;5074051;28;20036;-73
2022/05/09 12:38:52;;;;;;;5.28;3.08;;;25.60;55.30;;;;;;5069007;28;20044;-72
2022/05/09 12:41:28;;;;;;;5.25;3.05;;;25.50;55.30;;;;;;5046886;28;20040;-72
2022/05/09 12:44:07;;;;;;;4.82;2.92;;;25.20;55.20;;;;;;5068558;28;20033;-71
2022/05/09 12:46:46;;;;;;;7.53;2.40;;;24.80;55.50;;;;;;5068511;28;20029;-71
2022/05/09 12:49:19;;;;;;;3.10;2.55;;;25.20;56.00;;;;;;5071068;28;20025;-73
2022/05/09 12:51:49;;;;;;;2.53;2.33;;;25.20;55.10;;;;;;5067843;28;20055;-71
2022/05/09 12:54:19;;;;;;;3.15;2.67;;;25.50;55.00;;;;;;5071184;28;20043;-73
2022/05/09 12:56:46;;;;;;;;;;;25.00;54.70;;;;;;5071761;28;20029;-73
2022/05/09 12:59:14;;;;;;;7.28;2.58;;;24.60;55.50;;;;;;5073763;28;19923;-73
2022/05/09 13:01:50;;;;;;;6.38;2.75;;;24.50;55.30;;;;;;5074647;28;20047;-77
2022/05/09 13:04:26;;;;;;;5.57;3.00;;;24.40;55.60;;;;;;5072431;28;20683;-76
2022/05/09 13:07:02;;;;;;;2.63;2.42;;;24.30;56.10;;;;;;5069951;28;20037;-74
2022/05/09 13:09:35;;;;;;;3.97;2.83;;;24.10;56.30;;;;;;5074981;28;20389;-75
2022/05/09 13:12:13;;;;;;;2.67;2.47;;;24.10;56.60;;;;;;5052349;28;20040;-76
2022/05/09 13:14:47;;;;;;;5.82;3.15;;;24.10;57.10;;;;;;5071782;28;20055;-74